Terminal Aerodrome Forecast
Issued by NWS

Home | Current Version | Previous Version | Text Only | Print | Product List | Glossary On
Versions: 1 2 3 4 5 6 7 8 9 10 11 12 13 14 15 16 17 18 19 20 21 22 23 24 25
000
FTUS46 KLOX 222300
TAFPRB
TAF
KPRB 222338Z 2300/2324 09012KT P6SM SCT020
     FM230200 09008KT P6SM SCT020
     FM230600 VRB03KT 4SM BR BKN007
     FM231100 VRB03KT 1/2SM FG VV001
     FM231700 VRB03KT 3SM BR OVC003
     FM231900 08006KT P6SM SKC=

USA.gov is the U.S. government's official web portal to all federal, state and local government web resources and services.